Time;durP1;ratioP1;P1;durP2;ratioP2;P2;SDS_P1;SDS_P2;PMS_P1;PMS_P2;Temp;Humidity;BMP_temperature;BMP_pressure;BME280_temperature;BME280_humidity;BME280_pressure;Samples;Min_cycle;Max_cycle;Signal;HPM_P1;HPM_P2
2022/03/06 00:01:04;;;;;;;;;;;;;;;;;;4453423;32;20083;-80
2022/03/06 00:03:29;;;;;;;40.47;22.48;;;;;;;;;;4466579;32;20011;-80
2022/03/06 00:05:54;;;;;;;;;;;;;;;;;;4453381;32;20043;-79
2022/03/06 00:08:19;;;;;;;42.26;23.14;;;;;;;;;;4456964;32;19970;-80
2022/03/06 00:10:44;;;;;;;;;;;;;;;;;;4455919;32;20051;-78
2022/03/06 00:13:10;;;;;;;42.30;24.16;;;;;;;;;;4455504;32;19948;-79
2022/03/06 00:15:35;;;;;;;;;;;;;;;;;;4471220;32;20068;-78
2022/03/06 00:18:00;;;;;;;33.92;19.48;;;;;;;;;;4455831;32;19989;-80
2022/03/06 00:20:25;;;;;;;;;;;;;;;;;;4471539;32;20053;-78
2022/03/06 00:22:51;;;;;;;41.15;20.92;;;;;;;;;;4469887;32;19988;-78
2022/03/06 00:25:16;;;;;;;;;;;;;;;;;;4455549;32;20048;-78
2022/03/06 00:27:41;;;;;;;40.38;19.52;;;;;;;;;;4456513;32;19992;-80
2022/03/06 00:30:06;;;;;;;;;;;;;;;;;;4469599;32;20021;-79
2022/03/06 00:32:31;;;;;;;42.45;21.05;;;;;;;;;;4469775;32;20353;-79
2022/03/06 00:34:57;;;;;;;;;;;;;;;;;;4469507;32;20103;-80
2022/03/06 00:37:22;;;;;;;41.90;21.87;;;;;;;;;;4455224;32;19969;-78
2022/03/06 00:39:47;;;;;;;;;;;;;;;;;;4469545;32;20025;-79
2022/03/06 00:42:12;;;;;;;38.33;20.08;;;;;;;;;;4470031;32;19940;-80
2022/03/06 00:44:38;;;;;;;;;;;;;;;;;;4469900;32;20025;-77
2022/03/06 00:47:05;;;;;;;40.50;20.55;;;;;;;;;;4470956;32;19943;-76
2022/03/06 00:49:31;;;;;;;39.22;19.52;;;;;;;;;;4469060;32;20063;-81
2022/03/06 00:51:56;;;;;;;;;;;;;;;;;;4455232;32;20091;-77
2022/03/06 00:54:21;;;;;;;32.55;18.08;;;;;;;;;;4469557;32;19952;-78
2022/03/06 00:56:46;;;;;;;;;;;;;;;;;;4470004;32;20319;-79
2022/03/06 00:59:12;;;;;;;36.08;19.60;;;;;;;;;;4469005;32;19931;-79
2022/03/06 01:01:37;;;;;;;;;;;;;;;;;;4469563;32;20017;-79
2022/03/06 01:04:02;;;;;;;36.40;19.05;;;;;;;;;;4469921;32;19936;-79
2022/03/06 01:06:27;;;;;;;;;;;;;;;;;;4455340;32;20047;-79
2022/03/06 01:08:53;;;;;;;39.55;19.62;;;;;;;;;;4454550;32;19936;-78
2022/03/06 01:11:18;;;;;;;;;;;;;;;;;;4469167;32;20021;-79
2022/03/06 01:13:43;;;;;;;34.80;19.14;;;;;;;;;;4454876;32;19944;-78
2022/03/06 01:16:08;;;;;;;;;;;;;;;;;;4463154;32;20017;-79
2022/03/06 01:18:33;;;;;;;36.04;18.94;;;;;;;;;;4455707;32;19981;-78
2022/03/06 01:20:58;;;;;;;;;;;;;;;;;;4455978;32;20025;-78
2022/03/06 01:23:24;;;;;;;32.97;17.60;;;;;;;;;;4453591;32;19937;-79
2022/03/06 01:25:49;;;;;;;;;;;;;;;;;;4453576;32;20109;-80
2022/03/06 01:28:17;;;;;;;36.03;18.37;;;;;;;;;;4452048;32;19944;-76
2022/03/06 01:30:42;;;;;;;32.60;16.87;;;;;;;;;;4453330;32;20481;-77
2022/03/06 01:33:07;;;;;;;;;;;;;;;;;;4451651;32;20052;-79
2022/03/06 01:35:32;;;;;;;27.83;16.37;;;;;;;;;;4454726;32;20265;-79
2022/03/06 01:37:58;;;;;;;;;;;;;;;;;;4454216;32;20104;-80
2022/03/06 01:40:23;;;;;;;28.10;15.77;;;;;;;;;;4452367;32;20219;-77
2022/03/06 01:42:48;;;;;;;;;;;;;;;;;;4453497;32;20289;-79
2022/03/06 01:45:14;;;;;;;30.48;16.92;;;;;;;;;;4453033;32;19937;-79
2022/03/06 01:47:42;;;;;;;;;;;;;;;;;;4452003;32;20077;-79
2022/03/06 01:50:09;;;;;;;28.05;16.90;;;;;;;;;;4451570;32;19932;-77
2022/03/06 01:52:34;;;;;;;29.48;17.58;;;;;;;;;;4452655;32;20403;-79
2022/03/06 01:55:00;;;;;;;;;;;;;;;;;;4452792;32;20036;-78
2022/03/06 01:57:25;;;;;;;30.00;15.48;;;;;;;;;;4451247;32;19936;-78
2022/03/06 01:59:50;;;;;;;;;;;;;;;;;;4453019;32;20082;-82
2022/03/06 02:02:16;;;;;;;26.02;14.70;;;;;;;;;;4452706;32;19932;-80
2022/03/06 02:04:41;;;;;;;;;;;;;;;;;;4453783;32;20346;-80
2022/03/06 02:07:06;;;;;;;26.20;15.80;;;;;;;;;;4452884;32;20088;-79
2022/03/06 02:09:31;;;;;;;;;;;;;;;;;;4451452;32;20208;-79
2022/03/06 02:14:41;;;;;;;29.48;16.50;;;;;;;;;;4453020;32;20064;-77
2022/03/06 02:17:06;;;;;;;;;;;;;;;;;;4453039;32;20049;-79
2022/03/06 02:19:31;;;;;;;24.70;14.25;;;;;;;;;;4452542;32;19932;-78
2022/03/06 02:21:56;;;;;;;;;;;;;;;;;;4453069;32;20109;-80
2022/03/06 02:24:21;;;;;;;23.90;14.90;;;;;;;;;;4453016;32;19928;-79
2022/03/06 02:26:47;;;;;;;;;;;;;;;;;;4452716;32;20104;-79
2022/03/06 02:29:12;;;;;;;25.65;14.73;;;;;;;;;;4451281;32;19941;-80
2022/03/06 02:31:37;;;;;;;;;;;;;;;;;;4451122;32;20066;-75
2022/03/06 02:34:04;;;;;;;26.50;14.75;;;;;;;;;;4451839;32;19993;-77
2022/03/06 02:36:30;;;;;;;22.20;13.77;;;;;;;;;;4451853;32;20351;-79
2022/03/06 02:38:55;;;;;;;;;;;;;;;;;;4451811;32;20048;-79
2022/03/06 02:41:20;;;;;;;25.90;15.70;;;;;;;;;;4451294;32;19936;-80
2022/03/06 02:43:45;;;;;;;;;;;;;;;;;;4451416;32;20378;-76
2022/03/06 02:46:11;;;;;;;25.45;15.57;;;;;;;;;;4451135;32;19932;-79
2022/03/06 02:48:36;;;;;;;;;;;;;;;;;;4452729;32;20049;-79
2022/03/06 02:51:01;;;;;;;25.95;14.52;;;;;;;;;;4451742;32;19960;-80
2022/03/06 02:53:26;;;;;;;;;;;;;;;;;;4452441;32;20450;-80
2022/03/06 02:55:51;;;;;;;22.13;14.50;;;;;;;;;;4450743;32;20000;-81
2022/03/06 02:58:16;;;;;;;;;;;;;;;;;;4451595;32;20391;-79
2022/03/06 03:00:42;;;;;;;24.20;14.55;;;;;;;;;;4451322;32;20005;-80
2022/03/06 03:03:07;;;;;;;;;;;;;;;;;;4451236;32;20411;-77
2022/03/06 03:05:32;;;;;;;27.67;16.27;;;;;;;;;;4452103;32;19983;-76
2022/03/06 03:07:57;;;;;;;;;;;;;;;;;;4451919;32;20435;-78
2022/03/06 03:10:24;;;;;;;27.55;16.80;;;;;;;;;;4451070;32;19992;-76
2022/03/06 03:12:49;;;;;;;28.50;15.55;;;;;;;;;;4451850;32;20025;-79
2022/03/06 03:15:14;;;;;;;;;;;;;;;;;;4453132;32;20143;-78
2022/03/06 03:17:40;;;;;;;23.15;14.82;;;;;;;;;;4452231;32;19933;-77
2022/03/06 03:20:05;;;;;;;;;;;;;;;;;;4450505;32;20029;-77
2022/03/06 03:22:30;;;;;;;25.75;16.45;;;;;;;;;;4451801;32;19933;-81
2022/03/06 03:24:55;;;;;;;;;;;;;;;;;;4450621;32;20053;-79
2022/03/06 03:27:20;;;;;;;29.63;17.20;;;;;;;;;;4449944;32;19937;-79
2022/03/06 03:29:46;;;;;;;;;;;;;;;;;;4450669;32;20144;-79
2022/03/06 03:32:11;;;;;;;27.90;16.52;;;;;;;;;;4451092;32;19937;-78
2022/03/06 03:34:36;;;;;;;;;;;;;;;;;;4451288;32;20092;-79
2022/03/06 03:37:01;;;;;;;26.87;17.12;;;;;;;;;;4449937;32;19996;-80
2022/03/06 03:39:26;;;;;;;;;;;;;;;;;;4452040;32;20173;-78
2022/03/06 03:41:52;;;;;;;29.33;17.27;;;;;;;;;;4451229;32;20250;-80
2022/03/06 03:44:17;;;;;;;;;;;;;;;;;;4450729;32;20033;-76
2022/03/06 03:46:42;;;;;;;29.10;17.67;;;;;;;;;;4449876;32;19966;-77
2022/03/06 03:49:07;;;;;;;;;;;;;;;;;;4451847;32;20048;-78
2022/03/06 03:51:33;;;;;;;28.60;17.85;;;;;;;;;;4450175;32;19932;-80
2022/03/06 03:53:58;;;;;;;;;;;;;;;;;;4452279;32;20021;-79
2022/03/06 03:56:23;;;;;;;29.60;18.48;;;;;;;;;;4450280;32;19936;-77
2022/03/06 03:58:48;;;;;;;;;;;;;;;;;;4450411;32;20048;-79
2022/03/06 04:01:14;;;;;;;29.15;18.52;;;;;;;;;;4451137;32;19984;-80
2022/03/06 04:03:39;;;;;;;;;;;;;;;;;;4451589;32;20116;-78
2022/03/06 04:06:04;;;;;;;32.30;19.17;;;;;;;;;;4451487;32;19932;-78
2022/03/06 04:08:29;;;;;;;;;;;;;;;;;;4449926;32;20506;-80
2022/03/06 04:10:59;;;;;;;32.13;19.75;;;;;;;;;;4451522;32;20321;-76
2022/03/06 04:13:24;;;;;;;35.85;20.90;;;;;;;;;;4449573;32;20022;-78
2022/03/06 04:15:49;;;;;;;;;;;;;;;;;;4452188;32;20013;-75
2022/03/06 04:18:14;;;;;;;34.08;20.48;;;;;;;;;;4450745;32;19940;-78
2022/03/06 04:20:39;;;;;;;;;;;;;;;;;;4452719;32;20070;-77
2022/03/06 04:23:04;;;;;;;39.84;24.46;;;;;;;;;;4449537;32;19932;-75
2022/03/06 04:25:29;;;;;;;;;;;;;;;;;;4451509;32;20030;-78
2022/03/06 04:27:55;;;;;;;35.60;22.22;;;;;;;;;;4450324;32;19944;-77
2022/03/06 04:30:20;;;;;;;;;;;;;;;;;;4451583;32;20047;-77
2022/03/06 04:32:45;;;;;;;38.30;23.48;;;;;;;;;;4451198;32;19933;-79
2022/03/06 04:35:11;;;;;;;;;;;;;;;;;;4451104;32;20419;-79
2022/03/06 04:37:36;;;;;;;35.33;22.30;;;;;;;;;;4449777;32;20373;-78
2022/03/06 04:40:01;;;;;;;;;;;;;;;;;;4450889;32;20025;-77
2022/03/06 04:42:26;;;;;;;32.92;22.83;;;;;;;;;;4451026;32;20010;-78
2022/03/06 04:44:51;;;;;;;;;;;;;;;;;;4451405;32;20112;-79
2022/03/06 04:47:17;;;;;;;34.08;22.90;;;;;;;;;;4450987;32;20016;-75
2022/03/06 04:49:42;;;;;;;;;;;;;;;;;;4449792;32;20040;-76
2022/03/06 04:52:07;;;;;;;36.65;24.30;;;;;;;;;;4449556;32;19936;-76
2022/03/06 04:54:32;;;;;;;;;;;;;;;;;;4454611;32;20063;-78
2022/03/06 04:56:57;;;;;;;35.58;22.08;;;;;;;;;;4454692;32;19971;-79
2022/03/06 04:59:32;;;;;;;;;;;;;;;;;;4454207;32;20112;-79
2022/03/06 05:01:58;;;;;;;37.53;21.85;;;;;;;;;;4450207;32;19936;-79
2022/03/06 05:04:23;;;;;;;;;;;;;;;;;;4439685;32;20142;-80
2022/03/06 05:06:49;;;;;;;39.45;23.60;;;;;;;;;;4439129;32;19975;-77
2022/03/06 05:09:14;;;;;;;;;;;;;;;;;;4453430;32;20112;-78
2022/03/06 05:11:39;;;;;;;33.85;22.20;;;;;;;;;;4439758;32;20254;-78
2022/03/06 05:14:04;;;;;;;;;;;;;;;;;;4455273;32;20224;-75
2022/03/06 05:16:30;;;;;;;36.05;21.87;;;;;;;;;;4453805;32;19933;-80
2022/03/06 05:18:56;;;;;;;;;;;;;;;;;;4453895;32;20013;-79
2022/03/06 05:21:21;;;;;;;42.17;21.25;;;;;;;;;;4452870;32;19952;-78
2022/03/06 05:23:47;;;;;;;35.72;21.02;;;;;;;;;;4452882;32;20013;-77
2022/03/06 05:26:12;;;;;;;;;;;;;;;;;;4452143;32;20044;-79
2022/03/06 05:28:37;;;;;;;31.83;21.87;;;;;;;;;;4453755;32;19940;-79
2022/03/06 05:31:03;;;;;;;;;;;;;;;;;;4452098;32;20121;-80
2022/03/06 05:33:28;;;;;;;29.12;19.83;;;;;;;;;;4452961;32;19945;-78
2022/03/06 05:35:53;;;;;;;;;;;;;;;;;;4453370;32;20070;-80
2022/03/06 05:38:18;;;;;;;32.62;19.76;;;;;;;;;;4453227;32;20249;-81
2022/03/06 05:40:44;;;;;;;;;;;;;;;;;;4454062;32;20308;-78
2022/03/06 05:43:09;;;;;;;31.24;20.82;;;;;;;;;;4454007;32;19952;-79
2022/03/06 05:45:34;;;;;;;;;;;;;;;;;;4453259;32;20044;-80
2022/03/06 05:48:02;;;;;;;28.23;19.20;;;;;;;;;;4452746;32;19976;-81
2022/03/06 05:50:27;;;;;;;34.35;20.70;;;;;;;;;;4452669;32;20144;-80
2022/03/06 05:52:52;;;;;;;;;;;;;;;;;;4453136;32;20033;-80
2022/03/06 05:55:17;;;;;;;31.37;20.42;;;;;;;;;;4452844;32;19979;-78
2022/03/06 05:57:44;;;;;;;;;;;;;;;;;;4453151;32;20116;-80
2022/03/06 06:00:10;;;;;;;37.28;20.20;;;;;;;;;;4452030;32;19933;-79
2022/03/06 06:02:35;;;;;;;;;;;;;;;;;;4452755;32;20399;-77
2022/03/06 06:05:01;;;;;;;29.83;19.25;;;;;;;;;;4452383;32;19984;-80
2022/03/06 06:07:26;;;;;;;;;;;;;;;;;;4452096;32;20363;-80
2022/03/06 06:09:51;;;;;;;31.23;19.45;;;;;;;;;;4453851;32;19951;-81
2022/03/06 06:12:16;;;;;;;;;;;;;;;;;;4451731;32;20057;-80
2022/03/06 06:14:41;;;;;;;29.60;19.17;;;;;;;;;;4453399;32;19941;-80
2022/03/06 06:17:06;;;;;;;;;;;;;;;;;;4452907;32;20059;-79
2022/03/06 06:19:32;;;;;;;33.90;20.23;;;;;;;;;;4452639;32;19936;-78
2022/03/06 06:21:57;;;;;;;;;;;;;;;;;;4451411;32;20018;-78
2022/03/06 06:24:22;;;;;;;29.70;19.12;;;;;;;;;;4452362;32;19958;-78
2022/03/06 06:26:49;;;;;;;;;;;;;;;;;;4451962;32;20052;-80
2022/03/06 06:29:14;;;;;;;30.88;19.50;;;;;;;;;;4452309;32;20298;-80
2022/03/06 06:31:39;;;;;;;;;;;;;;;;;;4451414;32;20039;-76
2022/03/06 06:34:04;;;;;;;25.62;17.70;;;;;;;;;;4452082;32;19952;-80
2022/03/06 06:36:30;;;;;;;;;;;;;;;;;;4453267;32;20070;-81
2022/03/06 06:38:55;;;;;;;27.05;18.05;;;;;;;;;;4450774;32;19940;-80
2022/03/06 06:41:20;;;;;;;;;;;;;;;;;;4452263;32;20085;-78
2022/03/06 06:43:45;;;;;;;31.65;18.33;;;;;;;;;;4450700;32;19957;-79
2022/03/06 06:46:10;;;;;;;;;;;;;;;;;;4453554;32;20147;-79
2022/03/06 06:48:35;;;;;;;24.37;15.80;;;;;;;;;;4452147;32;19936;-79
2022/03/06 06:51:01;;;;;;;;;;;;;;;;;;4450825;32;20112;-80
2022/03/06 06:53:26;;;;;;;27.40;17.45;;;;;;;;;;4452007;32;20220;-80
2022/03/06 06:55:51;;;;;;;;;;;;;;;;;;4452276;32;20124;-77
2022/03/06 06:58:16;;;;;;;23.90;17.45;;;;;;;;;;4463450;32;19932;-81
2022/03/06 07:00:41;;;;;;;;;;;;;;;;;;4467523;32;20061;-77
2022/03/06 07:03:06;;;;;;;22.50;16.27;;;;;;;;;;4467363;32;20455;-76
2022/03/06 07:05:31;;;;;;;;;;;;;;;;;;4467751;32;20017;-79
2022/03/06 07:07:57;;;;;;;26.40;15.86;;;;;;;;;;4453063;32;19948;-77
2022/03/06 07:10:22;;;;;;;;;;;;;;;;;;4452990;32;20112;-79
2022/03/06 07:12:48;;;;;;;27.08;17.37;;;;;;;;;;4466853;32;19978;-79
2022/03/06 07:15:14;;;;;;;25.70;17.05;;;;;;;;;;4452536;32;20051;-81
2022/03/06 07:17:39;;;;;;;;;;;;;;;;;;4452728;32;20025;-81
2022/03/06 07:20:04;;;;;;;29.20;16.23;;;;;;;;;;4467833;32;19984;-79
2022/03/06 07:22:30;;;;;;;;;;;;;;;;;;4467371;32;20334;-80
2022/03/06 07:24:55;;;;;;;25.62;17.12;;;;;;;;;;4466851;32;19936;-79
2022/03/06 07:27:20;;;;;;;;;;;;;;;;;;4453233;32;20021;-80
2022/03/06 07:29:45;;;;;;;26.25;16.37;;;;;;;;;;4466597;32;19968;-78
2022/03/06 07:32:10;;;;;;;;;;;;;;;;;;4453259;32;20422;-78
2022/03/06 07:34:35;;;;;;;27.90;16.92;;;;;;;;;;4452650;32;19980;-80
2022/03/06 07:37:01;;;;;;;;;;;;;;;;;;4467602;32;20025;-80
2022/03/06 07:39:26;;;;;;;24.15;15.70;;;;;;;;;;4466424;32;20344;-78
2022/03/06 07:41:51;;;;;;;;;;;;;;;;;;4466784;32;20138;-77
2022/03/06 07:44:16;;;;;;;22.73;17.62;;;;;;;;;;4452742;32;19937;-80
2022/03/06 07:46:41;;;;;;;;;;;;;;;;;;4467378;32;20040;-80
2022/03/06 07:49:09;;;;;;;27.45;16.30;;;;;;;;;;4466728;32;20023;-80
2022/03/06 07:51:35;;;;;;;25.00;16.60;;;;;;;;;;4452238;32;20072;-78
2022/03/06 07:54:00;;;;;;;;;;;;;;;;;;4466581;32;20025;-77
2022/03/06 07:56:25;;;;;;;23.20;16.75;;;;;;;;;;4466808;32;19983;-81
2022/03/06 07:58:50;;;;;;;;;;;;;;;;;;4467354;32;20120;-77
2022/03/06 08:01:15;;;;;;;21.88;15.20;;;;;;;;;;4466770;32;19971;-79
2022/03/06 08:03:40;;;;;;;;;;;;;;;;;;4467426;32;20040;-79
2022/03/06 08:06:06;;;;;;;25.30;16.17;;;;;;;;;;4453194;32;19932;-76
2022/03/06 08:08:31;;;;;;;;;;;;;;;;;;4452722;32;20120;-79
2022/03/06 08:10:56;;;;;;;20.23;13.13;;;;;;;;;;4467040;32;19984;-80
2022/03/06 08:13:21;;;;;;;;;;;;;;;;;;4466947;32;20021;-76
2022/03/06 08:15:46;;;;;;;17.62;13.02;;;;;;;;;;4466858;32;19940;-79
2022/03/06 08:18:11;;;;;;;;;;;;;;;;;;4453206;32;20177;-79
2022/03/06 08:20:37;;;;;;;20.95;13.75;;;;;;;;;;4466588;32;19967;-80
2022/03/06 08:23:02;;;;;;;;;;;;;;;;;;4452387;32;20035;-79
2022/03/06 08:25:27;;;;;;;19.45;11.65;;;;;;;;;;4452478;32;19975;-78
2022/03/06 08:27:52;;;;;;;;;;;;;;;;;;4470296;32;20112;-78
2022/03/06 08:30:17;;;;;;;15.85;11.00;;;;;;;;;;4472686;32;19944;-78
2022/03/06 08:32:42;;;;;;;;;;;;;;;;;;4471070;32;20048;-78
2022/03/06 08:35:08;;;;;;;17.70;9.98;;;;;;;;;;4469159;32;19940;-76
2022/03/06 08:37:33;;;;;;;;;;;;;;;;;;4470327;32;20363;-81
2022/03/06 08:39:59;;;;;;;16.75;9.27;;;;;;;;;;4469752;32;19943;-78
2022/03/06 08:42:24;;;;;;;;;;;;;;;;;;4455484;32;20551;-80
2022/03/06 08:44:49;;;;;;;11.43;7.60;;;;;;;;;;4469253;32;19968;-78
2022/03/06 08:47:14;;;;;;;;;;;;;;;;;;4469251;32;20449;-80
2022/03/06 08:49:39;;;;;;;14.78;8.56;;;;;;;;;;4469222;32;20324;-80
2022/03/06 08:52:05;;;;;;;;;;;;;;;;;;4469396;32;20456;-80
2022/03/06 08:54:30;;;;;;;11.60;6.93;;;;;;;;;;4454679;32;19976;-80
2022/03/06 08:56:55;;;;;;;;;;;;;;;;;;4469675;32;20145;-81
2022/03/06 08:59:20;;;;;;;13.13;7.65;;;;;;;;;;4468728;32;19936;-80
2022/03/06 09:01:45;;;;;;;;;;;;;;;;;;4469299;32;20147;-80
2022/03/06 09:04:11;;;;;;;10.92;6.62;;;;;;;;;;4469079;32;19949;-80
2022/03/06 09:06:36;;;;;;;;;;;;;;;;;;4455211;32;20052;-82
2022/03/06 09:09:01;;;;;;;14.07;6.70;;;;;;;;;;4454775;32;20309;-79
2022/03/06 09:11:26;;;;;;;;;;;;;;;;;;4469390;32;20040;-80
2022/03/06 09:13:51;;;;;;;9.82;6.50;;;;;;;;;;4454512;32;19944;-80
2022/03/06 09:16:17;;;;;;;;;;;;;;;;;;4455212;32;20440;-81
2022/03/06 09:18:43;;;;;;;9.35;6.45;;;;;;;;;;4469122;32;19944;-80
2022/03/06 09:21:09;;;;;;;8.70;6.35;;;;;;;;;;4468741;32;20463;-82
2022/03/06 09:23:34;;;;;;;;;;;;;;;;;;4469291;32;20066;-81
2022/03/06 09:25:59;;;;;;;8.48;5.50;;;;;;;;;;4454914;32;19932;-80
2022/03/06 09:28:24;;;;;;;;;;;;;;;;;;4469861;32;20017;-80
2022/03/06 09:30:49;;;;;;;12.55;6.18;;;;;;;;;;4468438;32;19940;-81
2022/03/06 09:33:14;;;;;;;;;;;;;;;;;;4454669;32;20033;-82
2022/03/06 09:35:40;;;;;;;26.23;14.43;;;;;;;;;;4454720;32;19969;-80
2022/03/06 09:38:05;;;;;;;;;;;;;;;;;;4468714;32;20128;-80
2022/03/06 09:40:30;;;;;;;8.40;5.45;;;;;;;;;;4453845;32;19951;-80
2022/03/06 09:42:55;;;;;;;;;;;;;;;;;;4468753;32;20013;-82
2022/03/06 09:45:22;;;;;;;8.15;5.40;;;;;;;;;;4468394;32;20269;-81
2022/03/06 09:47:48;;;;;;;10.95;5.65;;;;;;;;;;4468211;32;20108;-80
2022/03/06 09:50:13;;;;;;;;;;;;;;;;;;4468984;32;20059;-81
2022/03/06 09:52:39;;;;;;;18.35;5.72;;;;;;;;;;4454035;32;19932;-81
2022/03/06 09:55:04;;;;;;;;;;;;;;;;;;4468835;32;20420;-80
2022/03/06 09:57:29;;;;;;;6.20;4.93;;;;;;;;;;4468796;32;19958;-80
2022/03/06 09:59:54;;;;;;;;;;;;;;;;;;4468679;32;20335;-80
2022/03/06 10:02:20;;;;;;;9.85;6.22;;;;;;;;;;4467936;32;19955;-81
2022/03/06 10:04:52;;;;;;;;;;;;;;;;;;4454763;32;20391;-81
2022/03/06 10:07:20;;;;;;;7.97;5.32;;;;;;;;;;4453876;32;20293;-81
2022/03/06 10:09:50;;;;;;;8.75;5.18;;;;;;;;;;4468054;32;20044;-80
2022/03/06 10:12:23;;;;;;;10.68;5.25;;;;;;;;;;4453783;32;20022;-80
2022/03/06 10:14:52;;;;;;;9.68;5.53;;;;;;;;;;4468247;32;20048;-81
2022/03/06 10:17:19;;;;;;;11.73;5.47;;;;;;;;;;4468077;32;20048;-81
2022/03/06 10:19:58;;;;;;;11.90;5.65;;;;;;;;;;4468573;32;20032;-81
2022/03/06 10:22:31;;;;;;;8.25;5.22;;;;;;;;;;4453260;32;20420;-82
2022/03/06 10:24:57;;;;;;;13.73;5.25;;;;;;;;;;4468160;32;20059;-81
2022/03/06 10:27:46;;;;;;;8.32;5.45;;;;;;;;;;4453890;32;20013;-82
2022/03/06 10:30:30;;;;;;;8.05;5.57;;;;;;;;;;4468304;32;20017;-80
2022/03/06 10:33:00;;;;;;;7.53;5.25;;;;;;;;;;4468082;32;20367;-82
2022/03/06 10:35:30;;;;;;;9.27;5.32;;;;;;;;;;4467753;32;20061;-81
2022/03/06 10:37:55;;;;;;;9.75;5.03;;;;;;;;;;4453833;32;20319;-80
2022/03/06 10:40:21;;;;;;;;;;;;;;;;;;4467701;32;20077;-80
2022/03/06 10:42:46;;;;;;;10.23;5.12;;;;;;;;;;4467810;32;19950;-80
2022/03/06 10:45:11;;;;;;;;;;;;;;;;;;4468037;32;20094;-80
2022/03/06 10:47:49;;;;;;;8.98;5.53;;;;;;;;;;4467516;32;19982;-80
2022/03/06 10:50:19;;;;;;;9.77;5.80;;;;;;;;;;4453006;32;20013;-81
2022/03/06 10:52:47;;;;;;;10.25;4.97;;;;;;;;;;4467418;32;20088;-81
2022/03/06 10:55:13;;;;;;;7.68;5.05;;;;;;;;;;4453470;32;20075;-81
2022/03/06 10:57:39;;;;;;;;;;;;;;;;;;4467834;32;20021;-79
2022/03/06 11:00:08;;;;;;;15.83;5.60;;;;;;;;;;4467293;32;20261;-81
2022/03/06 11:02:35;;;;;;;8.98;5.03;;;;;;;;;;4457807;32;20074;-80
2022/03/06 11:05:03;;;;;;;9.90;5.80;;;;;;;;;;4451944;32;20026;-80
2022/03/06 11:07:29;;;;;;;11.60;5.65;;;;;;;;;;4450774;32;20391;-82
2022/03/06 11:09:55;;;;;;;;;;;;;;;;;;4452300;32;20047;-81
2022/03/06 11:12:22;;;;;;;9.48;5.40;;;;;;;;;;4451703;32;19982;-80
2022/03/06 11:14:48;;;;;;;8.80;6.25;;;;;;;;;;4451396;32;20045;-80
2022/03/06 11:17:15;;;;;;;;;;;;;;;;;;4450915;32;20037;-81
2022/03/06 11:19:43;;;;;;;8.70;5.65;;;;;;;;;;4451415;32;19948;-82
2022/03/06 11:22:11;;;;;;;12.98;6.50;;;;;;;;;;4451305;32;20037;-81
2022/03/06 11:24:43;;;;;;;6.97;5.12;;;;;;;;;;4451564;32;20091;-83
2022/03/06 11:27:24;;;;;;;9.07;5.93;;;;;;;;;;4451125;32;20021;-81
2022/03/06 11:30:24;;;;;;;8.63;5.72;;;;;;;;;;4442809;32;20014;-81
2022/03/06 11:33:19;;;;;;;13.32;5.65;;;;;;;;;;4452322;32;20009;-80
2022/03/06 11:35:47;;;;;;;9.65;6.22;;;;;;;;;;4435235;32;20021;-81
2022/03/06 11:38:17;;;;;;;8.27;5.55;;;;;;;;;;4437455;32;20025;-82
2022/03/06 11:40:50;;;;;;;8.27;5.75;;;;;;;;;;4451727;32;20026;-82
2022/03/06 11:43:37;;;;;;;8.30;4.93;;;;;;;;;;4437607;32;20018;-82
2022/03/06 11:46:04;;;;;;;12.32;5.95;;;;;;;;;;4437851;32;20066;-81
2022/03/06 11:48:32;;;;;;;10.10;6.05;;;;;;;;;;4451601;32;20108;-81
2022/03/06 11:51:22;;;;;;;8.40;6.12;;;;;;;;;;4451397;32;20030;-81
2022/03/06 11:54:07;;;;;;;10.52;5.93;;;;;;;;;;4453087;32;20088;-81
2022/03/06 11:56:35;;;;;;;9.18;6.07;;;;;;;;;;4452806;32;20025;-81
2022/03/06 11:59:14;;;;;;;9.07;5.57;;;;;;;;;;4452842;32;20531;-81
2022/03/06 12:01:41;;;;;;;9.60;6.32;;;;;;;;;;4454987;32;20017;-81
2022/03/06 12:04:09;;;;;;;8.68;5.53;;;;;;;;;;4445653;32;20062;-82
2022/03/06 12:06:54;;;;;;;9.20;7.07;;;;;;;;;;4455437;32;20104;-81
2022/03/06 12:09:23;;;;;;;9.65;5.95;;;;;;;;;;4455994;32;20013;-81
2022/03/06 12:11:54;;;;;;;9.13;5.70;;;;;;;;;;4454120;32;20087;-80
2022/03/06 12:14:24;;;;;;;8.75;6.07;;;;;;;;;;4455984;32;20112;-82
2022/03/06 12:17:10;;;;;;;9.93;6.15;;;;;;;;;;4454884;32;20495;-82
2022/03/06 12:19:44;;;;;;;9.52;5.55;;;;;;;;;;4455259;32;20025;-82
2022/03/06 12:22:19;;;;;;;8.05;5.57;;;;;;;;;;4452991;32;20021;-81
2022/03/06 12:24:49;;;;;;;15.30;6.60;;;;;;;;;;4454433;32;20370;-83
2022/03/06 12:27:19;;;;;;;8.23;6.00;;;;;;;;;;4453318;32;20038;-81
2022/03/06 12:29:50;;;;;;;10.43;6.35;;;;;;;;;;4454188;32;20022;-82
2022/03/06 12:32:31;;;;;;;9.20;6.12;;;;;;;;;;4454105;32;20017;-81
2022/03/06 12:35:00;;;;;;;13.62;6.85;;;;;;;;;;4455247;32;20034;-81
2022/03/06 12:37:27;;;;;;;9.18;5.93;;;;;;;;;;4452782;32;20025;-81
2022/03/06 12:39:58;;;;;;;8.50;5.75;;;;;;;;;;4454408;32;20078;-81
2022/03/06 12:42:31;;;;;;;7.12;5.05;;;;;;;;;;4454172;32;20469;-82
2022/03/06 12:45:01;;;;;;;8.98;5.12;;;;;;;;;;4452750;32;20024;-82
2022/03/06 12:47:26;;;;;;;11.12;5.80;;;;;;;;;;4452535;32;20043;-82
2022/03/06 12:49:52;;;;;;;;;;;;;;;;;;4457540;32;20025;-82
2022/03/06 12:52:17;;;;;;;10.90;5.32;;;;;;;;;;4447634;32;19983;-81
2022/03/06 12:54:43;;;;;;;;;;;;;;;;;;4453977;32;20056;-79
2022/03/06 12:57:08;;;;;;;7.28;5.30;;;;;;;;;;4455492;32;19947;-81
2022/03/06 12:59:40;;;;;;;;;;;;;;;;;;4454371;32;20089;-81
2022/03/06 13:02:06;;;;;;;10.90;6.20;;;;;;;;;;4452591;32;19928;-82
2022/03/06 13:04:32;;;;;;;9.48;6.00;;;;;;;;;;4454312;32;20436;-81
2022/03/06 13:06:57;;;;;;;;;;;;;;;;;;4456973;32;20393;-81
2022/03/06 13:09:41;;;;;;;9.10;6.30;;;;;;;;;;4469590;32;19931;-81
2022/03/06 13:12:16;;;;;;;10.90;6.55;;;;;;;;;;4468948;32;20020;-82
2022/03/06 13:14:41;;;;;;;7.57;5.65;;;;;;;;;;4464978;32;20026;-82
2022/03/06 13:17:06;;;;;;;;;;;;;;;;;;4453443;32;20087;-82
2022/03/06 13:20:04;;;;;;;7.85;6.55;;;;;;;;;;4454639;32;19932;-81
2022/03/06 13:22:29;;;;;;;;;;;;;;;;;;4453375;32;20116;-82
2022/03/06 13:24:58;;;;;;;10.98;6.55;;;;;;;;;;4453916;32;19948;-82
2022/03/06 13:27:25;;;;;;;10.15;6.32;;;;;;;;;;4442581;32;20029;-82
2022/03/06 13:30:00;;;;;;;11.02;7.37;;;;;;;;;;4461921;32;20017;-80
2022/03/06 13:32:26;;;;;;;8.10;6.97;;;;;;;;;;4453251;32;20433;-81
2022/03/06 13:34:59;;;;;;;10.35;7.32;;;;;;;;;;4446373;32;20029;-81
2022/03/06 13:37:38;;;;;;;9.85;6.87;;;;;;;;;;4441643;32;20013;-81
2022/03/06 13:40:14;;;;;;;8.80;6.62;;;;;;;;;;4439786;32;20086;-82
2022/03/06 13:42:44;;;;;;;11.80;6.90;;;;;;;;;;4464429;32;20060;-81
2022/03/06 13:45:14;;;;;;;9.50;6.70;;;;;;;;;;4454734;32;20108;-81
2022/03/06 13:47:43;;;;;;;11.40;7.25;;;;;;;;;;4455977;32;20143;-86
2022/03/06 13:50:11;;;;;;;12.32;6.90;;;;;;;;;;4455394;32;20017;-87
2022/03/06 13:52:39;;;;;;;8.00;5.80;;;;;;;;;;4456426;32;20121;-85
2022/03/06 13:55:21;;;;;;;7.18;5.35;;;;;;;;;;4457395;32;20418;-88
2022/03/06 13:58:08;;;;;;;8.95;5.18;;;;;;;;;;4455430;32;20009;-87
2022/03/06 14:01:00;;;;;;;5.90;4.37;;;;;;;;;;4475488;32;20016;-88
2022/03/06 14:03:32;;;;;;;7.93;4.60;;;;;;;;;;4458985;32;20014;-85
2022/03/06 14:06:04;;;;;;;6.97;4.43;;;;;;;;;;4474803;32;20492;-87
2022/03/06 14:08:43;;;;;;;6.45;3.50;;;;;;;;;;4458763;32;20013;-87
2022/03/06 14:11:12;;;;;;;4.45;3.45;;;;;;;;;;4460146;32;20065;-86
2022/03/06 14:13:47;;;;;;;5.30;3.17;;;;;;;;;;4462275;32;20056;-87
2022/03/06 14:16:16;;;;;;;6.78;2.87;;;;;;;;;;4460454;32;20058;-86
2022/03/06 14:18:50;;;;;;;4.03;2.92;;;;;;;;;;4473867;32;20014;-83
2022/03/06 14:21:20;;;;;;;7.35;3.85;;;;;;;;;;4459492;32;20024;-87
2022/03/06 14:23:49;;;;;;;5.82;3.15;;;;;;;;;;4456131;32;20092;-84
2022/03/06 14:26:18;;;;;;;5.43;2.95;;;;;;;;;;4470134;32;20021;-88
2022/03/06 14:28:54;;;;;;;4.72;3.12;;;;;;;;;;4469973;32;20017;-84
2022/03/06 14:31:30;;;;;;;6.25;3.03;;;;;;;;;;4455080;32;20025;-86
2022/03/06 14:33:56;;;;;;;5.07;2.80;;;;;;;;;;4452921;32;20091;-82
2022/03/06 14:36:21;;;;;;;;;;;;;;;;;;4462451;32;20025;-85
2022/03/06 14:38:57;;;;;;;7.47;3.20;;;;;;;;;;4468337;32;19979;-85
2022/03/06 14:41:25;;;;;;;13.52;4.25;;;;;;;;;;4452742;32;20010;-86
2022/03/06 14:43:51;;;;;;;5.53;2.92;;;;;;;;;;4454208;32;20102;-84
2022/03/06 14:46:17;;;;;;;6.03;3.17;;;;;;;;;;4468310;32;20410;-84
2022/03/06 14:48:43;;;;;;;8.38;3.30;;;;;;;;;;4454298;32;20040;-83
2022/03/06 14:51:20;;;;;;;4.68;2.97;;;;;;;;;;4444271;32;20022;-84
2022/03/06 14:53:45;;;;;;;7.37;3.15;;;;;;;;;;4439630;32;20334;-84
2022/03/06 14:56:11;;;;;;;;;;;;;;;;;;4438977;32;20014;-85
2022/03/06 14:58:37;;;;;;;5.68;3.50;;;;;;;;;;4453276;32;19960;-83
2022/03/06 15:01:02;;;;;;;;;;;;;;;;;;4451941;32;20074;-85
2022/03/06 15:03:30;;;;;;;7.47;3.85;;;;;;;;;;4451741;32;19951;-83
2022/03/06 15:05:55;;;;;;;11.00;3.78;;;;;;;;;;4452074;32;20373;-84
2022/03/06 15:08:23;;;;;;;;;;;;;;;;;;4452588;32;20070;-85
2022/03/06 15:10:49;;;;;;;7.00;3.40;;;;;;;;;;4451767;32;19936;-84
2022/03/06 15:13:14;;;;;;;;;;;;;;;;;;4455730;32;20077;-84
2022/03/06 15:15:45;;;;;;;8.68;3.22;;;;;;;;;;4453409;32;19969;-83